茨城空港(百里飛行場)の過去48時間の天気

茨城空港(百里飛行場) (Hyakuri)

現在時刻: 4/27 14:02 JST (4/27 05:02 UTC) 以下の時間は現地時間です。

過去48時間のMETAR気象情報
時間 風向 風速(m/s) 視程 気温(℃) 湿度(%) 気圧(hPa) 天気現象
27 13:00 南南東 4 10km以上 21 49 1008
27 12:00 4 10km以上 21 43 1009
27 11:00 南西 4 10km以上 21 49 1010
27 10:00 南南西 4 10km以上 21 53 1011
27 09:28 南南西 4 10km以上 20 56 1011
27 09:00 南西 4 10km以上 20 60 1011
27 08:00 不定 1 10km以上 16 82 1012
27 07:50 不定 1 10km以上 16 82 1012
27 07:00 不定 1 10km以上 13 94 1012
27 06:00 不定 1 10km以上 11 94 1013
27 05:31 1 10km以上 10 94 1013
27 05:00 不定 1 10km以上 9 93 1012 地霧
27 04:00 静穏 0 10km以上 11 94 1012
27 03:00 静穏 0 10km以上 11 94 1012
27 02:00 静穏 0 10km以上 11 94 1013
27 01:00 不定 1 10km以上 11 94 1013
27 00:00 不定 1 10km以上 12 94 1014
26 23:00 不定 1 10km以上 13 88 1014
26 22:00 不定 1 10km以上 14 77 1013
26 21:00 2 10km以上 14 77 1013
26 20:00 南南西 4 10km以上 15 67 1013
26 19:00 南南西 3 10km以上 15 67 1012
26 18:00 3 10km以上 18 56 1011
26 17:00 南東 5 10km以上 18 52 1011
26 16:00 南東 5 10km以上 19 49 1010
26 15:00 東南東 6 10km以上 20 46 1010
26 14:00 南東 4 10km以上 21 49 1010
26 13:00 南南東 3 10km以上 20 53 1010
26 12:20 南南東 5 10km以上 19 56 1010
26 12:00 東南東 5 10km以上 18 56 1010
26 11:00 不定 2 10km以上 20 49 1010
26 10:07 北東 2 10km以上 19 49 1010
26 10:00 北北東 2 10km以上 18 52 1009
26 09:00 2 10km以上 18 56 1009
26 08:47 2 10km以上 18 56 1009
26 08:00 2 10km以上 16 77 1008
26 07:00 北東 2 10km以上 15 88 1007
26 06:00 不定 1 10km以上 13 100 1006
26 05:46 1 10km以上 13 94 1006
26 05:31 1 8,000m 13 100 1005 地霧
26 05:00 東北東 2 5,000m 13 100 1005 もや
26 04:39 北東 2 4,000m 13 100 1005 もや
26 04:21 北東 3 4,000m 14 94 1005 もや
26 03:43 北北東 3 4,000m 14 100 1004 もや
26 03:29 北北東 2 5,000m 14 100 1004 もや
26 03:00 2 5,000m 14 100 1003 もや
26 02:52 東北東 3 5,000m 14 100 1003 もや
26 02:00 2 3,000m 14 100 1003 弱いしゅう雨 もや
26 01:00 東北東 3 3,000m 14 94 1002 弱いしゅう雨 もや
26 00:36 東北東 2 3,000m 14 94 1002 しゅう雨 もや
26 00:00 北北東 4 4,000m 14 94 1002 弱いしゅう雨 もや
25 23:30 東北東 3 5,000m 14 94 1002 弱いしゅう雨 もや
25 23:00 東北東 3 10km以上 14 94 1002 弱いしゅう雨
25 22:41 東北東 3 10km以上 14 94 1002
25 22:00 4 10km以上 14 94 1001
25 21:00 北東 5 10km以上 14 94 1002
25 20:00 東北東 5 10km以上 15 88 1000
25 19:00 東北東 4 10km以上 15 94 1000
25 18:00 4 10km以上 16 88 998
25 17:00 東北東 5 10km以上 16 94 998
25 16:11 5 10km以上 17 83 997
25 16:00 西 3 10km以上 21 69 997
25 15:00 南西 5 10km以上 23 73 996
RJAH 270400Z 16008KT 9999 FEW020 SCT035 BKN180 21/10 Q1008
RJAH 270300Z 17007KT 9999 FEW020 BKN180 21/08 Q1009
RJAH 270200Z 22007KT 180V260 9999 FEW020 SCT030 BKN180 21/10 Q1010
RJAH 270100Z 20008KT 170V230 9999 FEW020 SCT030 BKN180 21/11 Q1011
RJAH 270028Z 21007KT 160V260 9999 FEW020 BKN180 BKN200 20/11 Q1011 RMK 2CU020 5AC180 A2987
RJAH 270000Z 22007KT 180V270 9999 FEW020 SCT180 BKN200 20/12 Q1011
RJAH 262300Z VRB01KT 9999 FEW020 BKN200 16/13 Q1012
RJAH 262250Z VRB01KT 9999 FEW020 SCT180 BKN200 16/13 Q1012 RMK 1CU020 3AC180 A2990
RJAH 262200Z VRB02KT 9999 FEW008 BKN180 13/12 Q1012
RJAH 262100Z VRB01KT 9999 FEW005 BKN180 BKN200 11/10 Q1013
RJAH 262031Z 36002KT 9999 FEW030 BKN180 BKN200 10/09 Q1013 RMK 1CU030 5AC180 A2992
RJAH 262000Z VRB02KT 9999 MIFG FEW030 BKN200 09/08 Q1012
RJAH 261900Z 00000KT 9999 FEW030 BKN/// 11/10 Q1012
RJAH 261800Z 00000KT 9999 FEW030 BKN/// 11/10 Q1012
RJAH 261700Z 00000KT 9999 FEW030 BKN/// 11/10 Q1013
RJAH 261600Z VRB01KT 9999 FEW030 BKN/// 11/10 Q1013
RJAH 261500Z VRB02KT 9999 FEW030 BKN/// 12/11 Q1014
RJAH 261400Z VRB01KT 9999 FEW030 BKN/// 13/11 Q1014
RJAH 261300Z VRB02KT 9999 FEW030 BKN/// 14/10 Q1013
RJAH 261200Z 19004KT 9999 FEW030 BKN/// 14/10 Q1013
RJAH 261100Z 20008KT 9999 FEW030 BKN/// 15/09 Q1013
RJAH 261000Z 20006KT 9999 FEW030 BKN/// 15/09 Q1012
RJAH 260900Z 18006KT 9999 FEW030 BKN250 18/09 Q1011
RJAH 260800Z 14009KT 9999 FEW030 BKN250 18/08 Q1011
RJAH 260700Z 13009KT 9999 FEW050 BKN250 19/08 Q1010
RJAH 260600Z 11011KT 9999 FEW050 BKN250 20/08 Q1010
RJAH 260500Z 13007KT 9999 FEW050 BKN250 21/10 Q1010
RJAH 260400Z 15006KT 110V210 9999 FEW030 SCT050 20/10 Q1010
RJAH 260320Z 15009KT 9999 FEW030 SCT040 19/10 Q1010 RMK 1CU030 4CU040 A2984
RJAH 260300Z 12010KT 9999 FEW030 BKN040 18/09 Q1010
RJAH 260200Z VRB04KT 9999 FEW035 BKN040 20/09 Q1010
RJAH 260107Z 05004KT 010V120 9999 FEW035 BKN040 19/08 Q1010 RMK 1SC035 5SC040 A2982
RJAH 260100Z 02003KT 330V090 9999 SCT035 18/08 Q1009
RJAH 260000Z 35003KT 290V070 9999 SCT015 SCT040 18/09 Q1009
RJAH 252347Z 01003KT 300V070 9999 SCT015 SCT040 18/09 Q1009 RMK 3CU015 3SC040 A2980
RJAH 252300Z 10003KT 9999 SCT012 BKN040 16/12 Q1008
RJAH 252200Z 05004KT 030V090 9999 FEW010 BKN040 15/13 Q1007
RJAH 252100Z VRB01KT 9999 SCT015 BKN040 13/13 Q1006
RJAH 252046Z 35001KT 9999 FEW015 BKN040 13/12 Q1006 RMK 2CU015 5SC040 A2972
RJAH 252031Z 01001KT 8000 MIFG FEW005 SCT040 13/13 Q1005 RMK 1ST005 3SC040 A2970
RJAH 252000Z 06003KT 5000 BR FEW008 SCT015 BKN040 13/13 Q1005
RJAH 251939Z 04004KT 4000 BR FEW008 SCT015 BKN040 13/13 Q1005 RMK 2ST008 3CU015 7SC040 A2968 VIS S-SW 3000M
RJAH 251921Z 05005KT 4000 BR FEW008 BKN015 BKN040 14/13 Q1005 RMK 2ST008 5CU015 7SC040 A2968 VIS W-N 5KM
RJAH 251843Z 03005KT 4000 BR FEW003 BKN005 OVC010 14/14 Q1004 RMK 2ST003 7ST005 8ST010 A2966 VIS S-SW 3000M
RJAH 251829Z 02003KT 5000 BR FEW004 BKN006 OVC015 14/14 Q1004 RMK 2ST004 5ST006 8CU015 A2965 VIS S-SW 4000M
RJAH 251800Z 08004KT 5000 BR FEW008 BKN020 OVC040 14/14 Q1003
RJAH 251752Z 06005KT 5000 BR FEW008 BKN020 OVC040 14/14 Q1003 RMK 2ST008 5CU020 8SC040 A2963 VIS SW-NW 7KM
RJAH 251700Z 10003KT 3000 -SHRA BR FEW004 BKN006 OVC015 14/14 Q1003
RJAH 251600Z 06006KT 3000 -SHRA BR FEW004 BKN006 OVC015 14/13 Q1002
RJAH 251536Z 07004KT 020V100 3000 SHRA BR FEW004 OVC006 14/13 Q1002 RMK 2ST004 8ST006 A2961 VIS SE-SW 2500M
RJAH 251500Z 03007KT 4000 -SHRA BR FEW004 OVC006 14/13 Q1002
RJAH 251430Z 06006KT 5000 -SHRA BR FEW004 OVC006 14/13 Q1002 RMK 2ST004 8ST006 A2961 VIS S-W 4000M
RJAH 251400Z 07005KT 040V110 9999 -SHRA FEW006 BKN008 14/13 Q1002
RJAH 251341Z 07006KT 020V090 9999 FEW006 BKN008 BKN012 14/13 Q1002 RMK 2ST006 5ST008 7CU012 A2959
RJAH 251300Z 08007KT 9999 FEW008 BKN012 14/13 Q1001
RJAH 251200Z 05009KT 9999 SCT008 BKN012 14/13 Q1002
RJAH 251100Z 07009KT 9999 SCT008 BKN012 15/13 Q1000
RJAH 251000Z 07007KT 9999 FEW008 BKN012 15/14 Q1000
RJAH 250900Z 09008KT 9999 FEW008 BKN012 16/14 Q0998
RJAH 250800Z 07010KT 9999 FEW006 SCT008 BKN012 16/15 Q0998
RJAH 250711Z 08009KT 9999 FEW008 BKN012 BKN120 17/14 Q0997 RMK 2ST008 6CU012 6AC120 A2947
RJAH 250700Z 27005KT 230V290 9999 FEW008 BKN015 BKN120 21/15 Q0997
RJAH 250600Z 23009KT 9999 FEW008 BKN015 23/18 Q0996